• Join FlightAware (Why Join?)
  • Login
  • US Flag 
12:57PM EDT


 

Airport Tracker/Info


-or-


 

Live Flight TrackerFlight Track Log ✈ SWA268 ✈ 14-Apr-2013 ✈ KFLL - KTPA

Flight Track Log - Related Links

Times and Time Zones

All times are in EDT time to prevent confusion due to time zone crossing. See the SWA268 flight status page for this flight to view local times or setup timezone preferences in your user account.

Time Position Orientation Groundspeed Altitude Reporting Facility
EDT Latitude Longitude Course Direction KTS MPH feet Rate Location/Type
05:37PM 26.0775 -80.1183 82° East 162 186 1,400  Level Miami Center
05:39PM 26.1639 -80.0858 19° North 248 285 5,000 1,320 Climbing Miami Center
05:40PM 26.2361 -80.1272 333° Northwest 256 295 5,100 1,620 Climbing Miami Center
05:41PM 26.2550 -80.2133 284° West 238 274 8,300 1,920 Climbing Miami Center
05:42PM 26.2633 -80.3017 276° West 256 295 9,000 360 Climbing Miami Center
05:43PM 26.2736 -80.3992 277° West 291 335 9,100  Climbing Miami Center
05:44PM 26.2819 -80.4783 277° West 291 335 9,100 1,200 Level Miami Center
05:45PM 26.3025 -80.5786 283° West 296 341 11,600 2,580 Climbing Miami Center
05:46PM 26.3550 -80.6475 310° West 311 358 14,300 2,700 Climbing Miami Center
05:47PM 26.4342 -80.7333 316° Northwest 346 398 17,100 2,880 Climbing Miami Center
05:48PM 26.5200 -80.8058 323° Northwest 373 429 20,100 2,400 Climbing Miami Center
05:49PM 26.6056 -80.8808 322° Northwest 386 444 22,000 420 Climbing Miami Center
05:50PM 26.6953 -80.9583 322° Northwest 393 452 21,000 -1,020 Descending Miami Center
05:51PM 26.7744 -81.0400 317° Northwest 386 444 20,000 -540 Descending Miami Center
05:52PM 26.8197 -81.1300 299° West 380 437 20,000  Level Miami Center
05:53PM 26.8647 -81.2364 295° West 380 437 20,000  Level Miami Center
05:54PM 26.9222 -81.3364 303° West 380 437 20,000  Level Miami Center
05:55PM 26.9919 -81.4417 307° West 380 437 20,000  Level Miami Center
05:56PM 27.0478 -81.5256 307° West 385 443 20,000  Level Miami Center
05:57PM 27.1133 -81.6239 307° West 385 443 20,000  Level Miami Center
05:58PM 27.1831 -81.7294 307° West 385 443 20,000 -960 Level Miami Center
05:59PM 27.2486 -81.8256 308° West 393 452 18,100 -2,040 Descending Miami Center
06:00PM 27.3039 -81.9119 306° West 400 460 16,000 -2,340 Descending Miami Center
06:01PM 27.3697 -82.0061 308° West 388 447 13,500 -2,520 Descending Miami Center
06:02PM 27.4289 -82.0997 305° West 383 441 11,000 -1,260 Descending Miami Center
06:03PM 27.4925 -82.1822 311° West 364 419 11,000 -60 Level Miami Center
06:04PM 27.5625 -82.2653 314° West 347 399 10,900 -600 Descending Miami Center
06:05PM 27.6222 -82.3406 312° West 333 383 9,900 -1,200 Descending Miami Center
06:06PM 27.6783 -82.4042 315° West 310 357 8,600 -1,440 Descending Miami Center
06:06PM 27.7000 -82.4167 333° Northwest 299 344 8,100 -1,560 Descending Tampa TRACON
06:07PM 27.7833 -82.4167 360° North 309 356 6,600 -1,440 Descending Tampa TRACON
06:08PM 27.8667 -82.4167 360° North 301 346 5,300 -840 Descending Tampa TRACON
06:09PM 27.9333 -82.4167 360° North 292 336 5,100 -720 Descending Tampa TRACON
06:10PM 28.0167 -82.4167 360° North 281 323 4,000 -1,020 Descending Tampa TRACON
06:11PM 28.1000 -82.4167 360° North 278 320 3,000 -720 Descending Tampa TRACON
06:12PM 28.1167 -82.4833 286° West 212 244 2,600 -600 Descending Tampa TRACON
06:13PM 28.0833 -82.5167 221° Southwest 174 200 1,900 -720 Descending Tampa TRACON
06:14PM 28.0500 -82.5333 204° Southwest 156 180 1,300 -720 Descending Tampa TRACON
06:15PM 28.0000 -82.5333 180° South 127 146 500 -720 Descending Tampa TRACON
06:17PM 27.9755 -82.5332 190° South  Level Estimated
06:24PM 27.9755 -82.5332 190° South  Level Estimated
06:25PM 27.9755 -82.5332 190° South  Level Estimated